Moncks Corner, SC

3:22 PM EDT on September 20, 2014 (GMT -0400)
KSCMONCK5 | Change Station
CLOSE
Current Station
Personal Weather Station
Location: Moncks Corner, SC
Elevation: 0 ft
Nearby Weather Stations

Elev 0 ft 33.12 °N, 80.03 °W | Updated 25 seconds ago

Clear
Clear
74.5 °F
Feels Like 77 °F
N
4.6
Wind Variable Wind from NW
Gusts 4.6 mph

Today
High -- | Low -- °F
--% Chance of Precip.
Yesterday
High -- | Low -- °F
Precip. -- in
7:06 AM 7:19 PM
Waning Crescent, 11% visible
Pressure 30.02 in
Visibility 7.0 miles
Clouds Clear
Heat Index 77 °F
Dew Point 49 °F
Humidity 40%
Rainfall 0.00 in
Snow Depth Not available.
UV 7 out of 12
Pollen 6.80 out of 12
Ozone Good
PM2.5 Good
Flu Activity Not available.
METAR KDYB 201915Z AUTO 01008G14KT 7SM CLR 23/20 A3002 RMK AO1

More Conditions Fewer Conditions

Pressure 30.02 in
Visibility 7.0 miles
Clouds Clear
Heat Index 77 °F
Dew Point 49 °F
Humidity 40%
Rainfall 0.00 in
Snow Depth Not available.
UV 7 out of 12
Pollen 6.80 out of 12
Ozone Good
PM2.5 Good
Flu Activity Not available.
METAR KDYB 201915Z AUTO 01008G14KT 7SM CLR 23/20 A3002 RMK AO1

More Conditions Fewer Conditions

10-Day Weather Forecast

Almanac

Astronomy

Sep. 20, 2014 Rise Set
Actual Time 7:06 AM EDT 7:19 PM EDT
Civil Twilight 6:42 AM EDT 7:44 PM EDT
Nautical Twilight 6:13 AM EDT 8:13 PM EDT
Astronomical Twilight 5:44 AM EDT 8:42 PM EDT
Moon 3:53 AM EDT 5:15 PM EDT
Length of Visible Light 13h 02m
Length of Day
12h 12m
Tomorrow will be 2m 3s shorter.
Waning Crescent, 11% of the Moon is Illuminated
Today
Waning Crescent
Sep 24
New
Oct 1
First Quarter
Oct 8
Full
Oct 15
Last Quarter

Today's Extremes

State Highs State Lows

Community

WunderPhotos

Upload Photos

1,754,927 photos uploaded!

WunderBlogs® & News

Nearby

Air Quality

  Air Quality AQ Index Pollutant
Yesterday Good
PM2.5
Yesterday Good
OZONE
Current Good
PM2.5
Current Good
OZONE
Saturday Good
OZONE

Snow Depth

Station Depth Elevation
No new snow has been reported.

Earthquake Activity

City Distance Mag. Time & Date
New Ellenton, South Carolina 98 miles 2.6 4:38 PM EDT
2014-09-19
Minimum magnitude displayed is 2.5.

Coastal Water Temperatures

Place Temperature
No Stations Reporting

Nearby Weather Stations